To NAV CANADA Home Page Login to a new session Search on AWWS site Disclaimer Vers la page française équivalente Tips FAQ What's new on the site To the Forecasts and Observations / NOTAM section To "File a Flight Plan" website Publications and other links Update of the User's profile FIC Telephone Numbers My Weather Data Folder Route Weather Data Regional Weather Data Local Weather Data To the Forecasts and Observations / NOTAM section
Request Generated 12/17/2018 at 00:22:56 UTC . Weather information available at that time is displayed.

METAR/TAF

TORONTO/OSHAWA EXECUTIVE AIRPORT/ON    (show WxCam)

SPECI CYOO 170017Z AUTO 28002KT 9SM BKN010 M02/M02 A2994 RMK SLP145=
METAR CYOO 170000Z AUTO VRB02KT 9SM SCT230 M01/M02 A2994 RMK SLP146=
METAR CYOO 162300Z AUTO 12004KT 9SM BKN200 OVC220 01/M01 A2994 RMK SLP146=
METAR CYOO 162200Z AUTO 12006KT 9SM SCT180 BKN250 02/M01 A2995 RMK SLP151=

CYOO - No TAF is issued for this station

TORONTO/BUTTONVILLE MUNICIPAL/ON    

SPECI CYKZ 170010Z 20003KT 15SM BKN011 01/M01 A2993 RMK SC7 PRESFR SLP145=
METAR CYKZ 170000Z 22003KT 15SM FEW009 BKN013 BKN230 01/M01 A2994 RMK SC2SC5CI1 CI TR SLP148=
SPECI CYKZ 162353Z 25003KT 15SM SCT009 BKN013 01/M01 A2994 RMK SC3SC3 SLP149=
METAR CYKZ 162300Z 17004KT 15SM FEW009 FEW160 SCT230 01/M01 A2994 RMK SC1AC1CI3 SC TR SLP148=
METAR CYKZ 162200Z 13005KT 15SM SCT180 SCT240 02/M01 A2996 RMK AC3CI1 SLP154=

TAF CYKZ 162338Z 1700/1712 17004KT P6SM FEW009 BKN160 TEMPO 1700/1703
BKN009 BKN130
FM170300 27006KT 6SM BR FEW007 TEMPO 1703/1708 4SM BR BKN007
PROB40 1703/1708 2SM BR BKN004
FM170800 28005KT 2SM BR OVC004 PROB30 1708/1711 1SM -FZDZ BR
FM171100 30009KT 3SM BR BKN006 BKN020
RMK NXT FCST BY 170600Z=

PETERBOROUGH/ON    (show WxCam)

SPECI CYPQ 170009Z AUTO 00000KT 5SM BR BKN190 BKN210 M02/M02 A2992 RMK SLP143=
METAR CYPQ 170000Z AUTO 00000KT 9SM BKN190 OVC210 M02/M02 A2992 RMK SLP143=
METAR CYPQ 162300Z AUTO 02002KT 9SM FEW180 BKN210 OVC230 M01/M02 A2994 RMK SLP148=
METAR CYPQ 162200Z AUTO 00000KT 9SM BKN180 OVC210 00/M01 A2996 RMK SLP155=

TAF AMD CYPQ 170017Z 1700/1703 VRB03KT P6SM BKN200 TEMPO 1700/1703
2SM BR
RMK FCST BASED ON AUTO OBS. NXT FCST WILL BE ISSUED AT 171045Z=

TORONTO/BILLY BISHOP TORONTO CITY AIRPORT/ON    (show WxCam)

METAR CYTZ 170000Z AUTO VRB02KT 9SM OVC013 03/01 A2996 RMK SLP149=
SPECI CYTZ 162319Z AUTO 00000KT 9SM BKN013 BKN230 02/00 A2996 RMK SLP149=
METAR CYTZ 162300Z AUTO 00000KT 9SM FEW014 BKN230 02/00 A2996 RMK SLP151=
SPECI CYTZ 162242Z AUTO 09004KT 9SM SCT014 OVC230 02/00 A2996 RMK SLP149=
METAR CYTZ 162200Z AUTO 05006KT 9SM OVC014 03/00 A2998 RMK SLP157=

TAF CYTZ 161938Z 1620/1720 09008KT P6SM BKN015 BKN120 TEMPO 1620/1623
SCT015 BKN120
FM162300 03006KT P6SM BKN010 TEMPO 1623/1703 SCT010
FM170300 27005KT P6SM SCT020 TEMPO 1703/1711 BKN020
BECMG 1703/1705 26012KT
FM171100 26012G22KT P6SM BKN025
FM171600 28015G25KT 4SM -SHSN BKN020
RMK FCST BASED ON AUTO OBS. NXT FCST BY 170200Z=

TORONTO/LESTER B. PEARSON INTL/ON    

METAR CYYZ 170000Z 18003KT 170V230 15SM OVC009 02/M01 A2994 RMK ST8 SLP147=
METAR CYYZ 162300Z 17003KT 15SM BKN009 BKN230 02/M01 A2995 RMK ST5CI2 SLP149=
SPECI CYYZ 162241Z 17004KT 15SM SCT009 SCT120 BKN220 02/M01 A2995 RMK SF3AC1CI1 SLP152=
METAR CYYZ 162200Z 16004KT 15SM FEW020 FEW150 SCT250 02/M01 A2996 RMK SC1AC1CI2 SLP153=

TAF CYYZ 162338Z 1700/1806 23004KT P6SM FEW009 TEMPO 1700/1702 BKN009
FM170200 25005KT 4SM BR BKN006 TEMPO 1702/1707 P6SM NSW SCT006
FM170700 28010KT P6SM FEW008 BKN010
FM171300 29012G22KT P6SM BKN025
BECMG 1714/1715 29018G28KT
FM171600 34018G28KT 4SM -SHSN BR OVC020
FM172000 32020G30KT P6SM BKN025
FM180200 30012G22KT P6SM -SN BKN020
RMK NXT FCST BY 170300Z=
Your time UTC time
Weather data provided by Environment Canada and NAV CANADA